createdAt,value
2022-10-09T00:45:39.634Z,100
2022-10-09T01:25:48.424Z,100
2022-10-09T02:58:45.419Z,100
2022-10-09T03:06:19.315Z,100
2022-10-09T03:16:21.781Z,100
2022-10-09T03:26:24.245Z,100
2022-10-09T03:36:26.088Z,100
2022-10-09T03:46:28.724Z,100
2022-10-09T03:56:30.908Z,100
2022-10-09T04:06:33.009Z,100
2022-10-09T04:16:35.635Z,100
2022-10-09T04:26:38.084Z,100
2022-10-09T04:36:40.473Z,100
2022-10-09T04:46:42.204Z,100
2022-10-09T04:56:44.299Z,100
2022-10-09T05:06:46.232Z,100
2022-10-09T05:17:08.700Z,100
2022-10-09T05:26:50.580Z,100
2022-10-09T05:36:53.250Z,100
2022-10-09T05:46:55.638Z,100
2022-10-09T05:56:57.944Z,100
2022-10-09T06:07:00.315Z,100
2022-10-09T06:17:02.489Z,100
2022-10-09T06:27:04.375Z,100
2022-10-09T06:37:06.071Z,100
2022-10-09T06:57:10.485Z,100
2022-10-09T07:07:13.056Z,100
2022-10-09T07:17:15.429Z,100
2022-10-09T07:27:18.026Z,100
2022-10-09T07:37:20.155Z,100
2022-10-09T07:47:22.361Z,100
2022-10-09T07:57:24.356Z,100
2022-10-09T08:07:28.465Z,100
2022-10-09T08:17:29.254Z,100
2022-10-09T08:27:30.949Z,100
2022-10-09T08:47:34.695Z,92
2022-10-09T09:07:38.432Z,81
2022-10-09T09:17:40.584Z,79
2022-10-09T09:27:42.723Z,77
2022-10-09T09:37:45.061Z,74
2022-10-09T09:47:47.483Z,71
2022-10-09T09:57:49.308Z,69
2022-10-09T10:07:51.489Z,67
2022-10-09T10:17:53.338Z,61
2022-10-09T10:27:55.140Z,59
2022-10-09T10:37:57.297Z,56
2022-10-09T10:47:59.753Z,58
2022-10-09T10:58:01.784Z,56
2022-10-09T11:08:04.374Z,54
2022-10-09T11:18:06.435Z,54
2022-10-09T11:28:08.402Z,53
2022-10-09T11:38:11.381Z,50
2022-10-09T11:48:13.075Z,49
2022-10-09T11:58:15.215Z,48
2022-10-09T12:08:18.470Z,48
2022-10-09T12:18:18.615Z,49
2022-10-09T12:28:20.365Z,47
2022-10-09T12:38:22.042Z,47
2022-10-09T12:48:23.998Z,47
2022-10-09T12:58:25.966Z,46
2022-10-09T13:08:28.170Z,46
2022-10-09T13:18:30.691Z,43
2022-10-09T13:28:32.567Z,43
2022-10-09T13:38:35.188Z,42
2022-10-09T13:48:37.038Z,42
2022-10-09T13:58:38.804Z,41
2022-10-09T14:08:41.324Z,42
2022-10-09T14:18:43.166Z,43
2022-10-09T14:28:45.028Z,43
2022-10-09T14:38:46.871Z,43
2022-10-09T14:48:49.498Z,43
2022-10-09T14:58:51.345Z,42
2022-10-09T15:08:53.611Z,42
2022-10-09T15:18:55.581Z,44
2022-10-09T15:38:59.629Z,44
2022-10-09T15:49:01.834Z,44
2022-10-09T15:59:03.639Z,47
2022-10-09T16:09:06.169Z,49
2022-10-09T16:19:08.790Z,52
2022-10-09T16:29:10.889Z,55
2022-10-09T16:39:13.525Z,57
2022-10-09T16:49:15.341Z,58
2022-10-09T16:59:17.154Z,61
2022-10-09T17:09:19.320Z,63
2022-10-09T17:19:21.331Z,64
2022-10-09T17:29:23.865Z,65
2022-10-09T17:39:26.157Z,65
2022-10-09T17:49:28.829Z,66
2022-10-09T17:59:30.534Z,69
2022-10-09T18:09:32.877Z,70
2022-10-09T18:19:34.683Z,73
2022-10-09T18:29:36.370Z,76
2022-10-09T18:39:38.180Z,80
2022-10-09T18:49:39.732Z,82
2022-10-09T18:59:41.956Z,85
2022-10-09T19:19:46.760Z,86
2022-10-09T19:29:48.951Z,85
2022-10-09T19:49:52.873Z,86
2022-10-09T20:20:00.216Z,91
2022-10-09T20:40:03.963Z,94
2022-10-09T21:00:09.073Z,96
2022-10-09T21:20:13.553Z,97
2022-10-09T21:50:21.131Z,100
2022-10-09T22:00:23.385Z,100
2022-10-09T22:50:33.637Z,100
2022-10-09T23:40:44.602Z,100
